x

Fairweather Ground 105nm West Of Juno, Ak (46083) Wave Buoy

6:50pm - Sat 30th Jul 2016 All times are AKDT. -8 hours from GMT.

  • Sig Wave height 3.9ft
  • Swell Direction
  • Peak Period 8s
  • Average Period 5s
  • Wind
    16mph, 18mph gusts
  • Sea Temp 57°f
  • Air Temp 58°f
  • Sea Pressure 1019.8mb
  • Fairweather Ground 105nm West  Of Juno, Ak
  • Fairweather Ground 105nm West  Of Juno, Ak

More Historic Weather Station data

Upgrade to MSW Pro to gain access to the past 30 days of data for over 8000 Wavebouys and Weather Stations around the globe.

Join Pro

Comparision Forecast

View Surf forecast
   
Sat 07/30 6:50pm 4ft 8s 5s 16 18 mph 1019.8mb 57f 58f
5:50pm 4ft 8s 5s 16 18 mph 1020.1mb 56f 58f
4:50pm 4ft 8s 5s 13 16 mph 1020.5mb 57f 58f
3:50pm 3.5ft 8s 5s 16 18 mph 1020.7mb 57f 58f
2:50pm 3.5ft 7s 5s 13
mph
1021.1mb 58f 58f
1:50pm 4ft 8s 6s 13 16 mph 1021mb 57f 58f
12:50pm 4ft 8s 6s 13 16 mph 1021mb 58f 58f
11:50am 3.5ft 7s 6s 13 16 mph 1021mb 58f 57f
10:50am 3.5ft 8s 6s 13 16 mph 1020.9mb 58f 57f
9:50am 4ft 8s 6s 11 13 mph 1021.2mb 58f 57f
8:50am 4.5ft 8s 6s 9 11 mph 1021.2mb 57f 56f
7:50am 5ft 8s 6s 11 13 mph 1021.1mb 57f 56f
6:50am 5ft 8s 6s 9 11 mph 1021.2mb 57f 56f
5:50am 4.5ft 8s 6s 9 11 mph 1021.2mb 56f 56f
4:50am 5ft 8s 6s 9 11 mph 1021.3mb 56f 56f
3:50am 5.5ft 8s 7s 9
mph
1021.3mb 55f 56f
2:50am 5ft 8s 7s 7 9 mph 1021.2mb 55f 56f
1:50am 4.5ft 8s 7s 9 11 mph 1021.1mb 56f 56f
12:50am 4.5ft 8s 6s 9
mph
1020.8mb 57f 57f
Fri 07/29 11:50pm 4.5ft 8s 6s 7 9 mph 1020.8mb 57f 57f
10:50pm 5ft 8s 7s 4 7 mph 1020.6mb 57f 57f
9:50pm 5ft 8s 6s 7 9 mph 1020.4mb 57f 57f
8:50pm 5ft 8s 6s 11 13 mph 1020.1mb 57f 57f
7:50pm 5ft 8s 6s 11 13 mph 1019.7mb 57f 58f
6:50pm 6ft 8s 6s 11 13 mph 1019.9mb 57f 57f
5:50pm 6.5ft 8s 6s 11 13 mph 1020.2mb 56f 57f
4:50pm 6ft 8s 6s 11 13 mph 1020.2mb 56f 57f
3:50pm 5ft 8s 6s 13 16 mph 1020.3mb 56f 57f
2:50pm 5ft 8s 6s 11 16 mph 1020.4mb 55f 57f
1:50pm 5ft 8s 6s 9 13 mph 1020.1mb 55f 57f
12:50pm 4.5ft 8s 6s 11
mph
1019.9mb 55f 56f
11:50am 4.5ft 8s 7s 9 11 mph 1019.7mb 55f 57f
10:50am 4.5ft 8s 6s 7
mph
1019.6mb 56f 56f
9:50am 4.5ft 8s 6s 9
mph
1019.6mb 56f 56f
8:50am 5ft 8s 6s 9 11 mph 1019.5mb 56f 57f
7:50am 5.5ft 8s 6s 7
mph
1019.6mb 56f 57f
6:50am 6ft 8s 6s 7 9 mph 1019.7mb 56f 56f
5:50am 6.5ft 8s 7s 4 7 mph 1019.8mb 56f 56f
4:50am 6ft 8s 6s 2
mph
1020mb 55f 55f
3:50am 6ft 8s 6s  -  2 mph 1020.2mb 55f 55f
2:50am 6ft 8s 6s  -  4 mph 1020.5mb 55f 55f
1:50am 6ft 8s 6s 7
mph
1020.4mb 55f 56f
12:50am 5.5ft 9s 6s 7
mph
1020.4mb 55f 56f
Thu 07/28 11:50pm 6ft 8s 7s 7 9 mph 1020.5mb 55f 55f
10:50pm 5ft 8s 6s 7
mph
1020.5mb 55f 55f
9:50pm 5.5ft 8s 7s 9 11 mph 1020.3mb 55f 56f
8:50pm 5ft 8s 6s 7 9 mph 1020.4mb 55f 56f
7:50pm 5ft 8s 6s 9 11 mph 1020.5mb 55f 56f
6:50pm 4.5ft 8s 6s 11 13 mph 1020.8mb 56f 57f
5:50pm 5ft 8s 6s 11 13 mph 1021mb 56f 57f
4:50pm 5ft 8s 6s 11 13 mph 1021.2mb 56f 56f
2:50pm 5ft 7s 5s 11 16 mph 1021.4mb 55f 57f
1:50pm 5.5ft 8s 6s 13
mph
1021.3mb 55f 57f
12:50pm 5.5ft 7s 6s 9
mph
1021.1mb 55f 57f
11:50am 6ft 6s 6s 9 11 mph 1020.9mb 54f 57f
9:50am 6ft 8s 6s 9 11 mph 1019.9mb 54f 57f
8:50am 5.5ft 8s 6s 7 9 mph 1019.4mb 55f 56f
7:50am 6ft 8s 6s 9 11 mph 1018.8mb 55f 57f
6:50am 6ft 8s 6s 11 13 mph 1018.1mb 55f 57f
5:50am 6ft 7s 6s 11 13 mph 1017.8mb 55f 57f
4:50am 6.5ft 8s 6s 11 13 mph 1017.3mb 55f 56f
3:50am 6ft 7s 6s 13 16 mph 1016.7mb 55f 57f
2:50am 6.5ft 7s 6s 16 18 mph 1016.4mb 55f 57f
1:50am 7ft 8s 6s 16 20 mph 1016.1mb 55f 57f
12:50am 7.5ft 8s 6s 20 22 mph 1015.6mb 55f 57f
Wed 07/27 11:50pm 9ft 7s 6s 20 25 mph 1015.3mb 55f 57f
10:50pm 8ft 7s 6s 22 25 mph 1015.1mb 55f 57f
9:50pm 8ft 7s 6s 20 25 mph 1015.1mb 55f 57f
8:50pm 9ft 7s 6s 22 27 mph 1015.2mb 55f 57f
7:50pm 8ft 8s 6s 25 31 mph 1014.7mb 55f 57f
6:50pm 7.5ft 7s 6s 25 29 mph 1014.7mb 55f 57f
5:50pm 7.5ft 7s 6s 25 29 mph 1015.4mb 55f 57f
4:50pm 7ft 8s 6s 22 27 mph 1015.8mb 56f 57f
3:50pm 7.5ft 8s 6s 22 27 mph 1016.1mb 56f 57f
2:50pm 7ft 8s 6s 20 25 mph 1016.5mb 56f 57f
1:50pm 7ft 8s 5s 20 25 mph 1016.7mb 56f 57f
12:50pm 7ft 7s 5s 22 27 mph 1016.5mb 56f 57f
11:50am 8ft 7s 5s 25 29 mph 1016.3mb 55f 57f
10:50am 7.5ft 6s 5s 25 29 mph 1015.9mb 55f 56f
9:50am 7.5ft 6s 5s 27 34 mph 1015.7mb 55f 57f
8:50am 6ft 6s 5s 29 34 mph 1015.5mb 55f 57f
7:50am 6ft 6s 5s 27 34 mph 1015.3mb 55f 57f
6:50am 6ft 6s 5s 25 31 mph 1015.7mb 55f 57f
5:50am 5ft 7s 5s 25 29 mph 1016.2mb 55f 57f
4:50am 5ft 6s 5s 22 27 mph 1017mb 55f 56f
3:50am 4.5ft 7s 5s 22 27 mph 1017.7mb 56f 57f